sensor_id;sensor_type;location;lat;lon;timestamp;P1;durP1;ratioP1;P2;durP2;ratioP2
36449;SDS011;22475;51.390;7.180;2022-12-07T00:02:26;18.80;;;13.52;;
36449;SDS011;22475;51.390;7.180;2022-12-07T00:04:53;19.02;;;13.05;;
36449;SDS011;22475;51.390;7.180;2022-12-07T00:07:19;25.92;;;13.57;;
36449;SDS011;22475;51.390;7.180;2022-12-07T00:09:47;21.42;;;12.70;;
36449;SDS011;22475;51.390;7.180;2022-12-07T00:12:14;23.95;;;13.73;;
36449;SDS011;22475;51.390;7.180;2022-12-07T00:14:41;27.80;;;14.52;;
36449;SDS011;22475;51.390;7.180;2022-12-07T00:17:08;22.08;;;11.63;;
36449;SDS011;22475;51.390;7.180;2022-12-07T00:19:34;20.65;;;13.02;;
36449;SDS011;22475;51.390;7.180;2022-12-07T00:22:01;21.15;;;14.05;;
36449;SDS011;22475;51.390;7.180;2022-12-07T00:24:28;16.15;;;10.20;;
36449;SDS011;22475;51.390;7.180;2022-12-07T00:26:56;20.88;;;13.77;;
36449;SDS011;22475;51.390;7.180;2022-12-07T00:29:22;16.63;;;11.32;;
36449;SDS011;22475;51.390;7.180;2022-12-07T00:31:49;18.50;;;12.35;;
36449;SDS011;22475;51.390;7.180;2022-12-07T00:34:16;21.48;;;12.43;;
36449;SDS011;22475;51.390;7.180;2022-12-07T00:36:44;17.02;;;10.52;;
36449;SDS011;22475;51.390;7.180;2022-12-07T00:39:11;18.90;;;13.80;;
36449;SDS011;22475;51.390;7.180;2022-12-07T00:41:38;23.38;;;15.18;;
36449;SDS011;22475;51.390;7.180;2022-12-07T00:44:06;23.95;;;13.70;;
36449;SDS011;22475;51.390;7.180;2022-12-07T00:46:33;18.08;;;11.52;;
36449;SDS011;22475;51.390;7.180;2022-12-07T00:49:00;23.70;;;14.60;;
36449;SDS011;22475;51.390;7.180;2022-12-07T00:51:27;20.30;;;14.70;;
36449;SDS011;22475;51.390;7.180;2022-12-07T00:53:54;27.50;;;15.25;;
36449;SDS011;22475;51.390;7.180;2022-12-07T00:56:21;18.90;;;12.88;;
36449;SDS011;22475;51.390;7.180;2022-12-07T00:58:49;24.83;;;14.13;;
36449;SDS011;22475;51.390;7.180;2022-12-07T01:01:18;22.83;;;13.02;;
36449;SDS011;22475;51.390;7.180;2022-12-07T01:03:45;27.08;;;15.45;;
36449;SDS011;22475;51.390;7.180;2022-12-07T01:06:13;25.45;;;15.00;;
36449;SDS011;22475;51.390;7.180;2022-12-07T01:08:41;23.92;;;15.07;;
36449;SDS011;22475;51.390;7.180;2022-12-07T01:11:11;18.88;;;12.98;;
36449;SDS011;22475;51.390;7.180;2022-12-07T01:16:06;16.42;;;10.55;;
36449;SDS011;22475;51.390;7.180;2022-12-07T01:18:35;24.45;;;14.68;;
36449;SDS011;22475;51.390;7.180;2022-12-07T01:21:04;18.10;;;12.05;;
36449;SDS011;22475;51.390;7.180;2022-12-07T01:23:32;19.42;;;12.27;;
36449;SDS011;22475;51.390;7.180;2022-12-07T01:26:00;23.20;;;14.40;;
36449;SDS011;22475;51.390;7.180;2022-12-07T01:28:28;27.98;;;15.02;;
36449;SDS011;22475;51.390;7.180;2022-12-07T01:30:56;23.30;;;14.93;;
36449;SDS011;22475;51.390;7.180;2022-12-07T01:33:23;22.38;;;12.77;;
36449;SDS011;22475;51.390;7.180;2022-12-07T01:35:53;21.02;;;12.80;;
36449;SDS011;22475;51.390;7.180;2022-12-07T01:38:20;20.13;;;14.38;;
36449;SDS011;22475;51.390;7.180;2022-12-07T01:40:53;30.23;;;15.98;;
36449;SDS011;22475;51.390;7.180;2022-12-07T01:43:20;25.50;;;14.93;;
36449;SDS011;22475;51.390;7.180;2022-12-07T01:45:48;24.05;;;13.10;;
36449;SDS011;22475;51.390;7.180;2022-12-07T01:48:16;23.40;;;13.45;;
36449;SDS011;22475;51.390;7.180;2022-12-07T01:50:47;23.92;;;14.35;;
36449;SDS011;22475;51.390;7.180;2022-12-07T01:53:17;28.30;;;15.93;;
36449;SDS011;22475;51.390;7.180;2022-12-07T01:55:45;27.25;;;17.20;;
36449;SDS011;22475;51.390;7.180;2022-12-07T02:00:42;18.70;;;12.35;;
36449;SDS011;22475;51.390;7.180;2022-12-07T02:03:09;31.80;;;16.55;;
36449;SDS011;22475;51.390;7.180;2022-12-07T02:05:41;19.23;;;12.93;;
36449;SDS011;22475;51.390;7.180;2022-12-07T02:08:09;28.20;;;15.07;;
36449;SDS011;22475;51.390;7.180;2022-12-07T02:10:39;24.80;;;16.02;;
36449;SDS011;22475;51.390;7.180;2022-12-07T02:13:08;29.92;;;15.75;;
36449;SDS011;22475;51.390;7.180;2022-12-07T02:15:47;29.05;;;17.23;;
36449;SDS011;22475;51.390;7.180;2022-12-07T02:18:24;23.65;;;15.98;;
36449;SDS011;22475;51.390;7.180;2022-12-07T02:20:59;36.28;;;17.23;;
36449;SDS011;22475;51.390;7.180;2022-12-07T02:23:39;35.97;;;18.75;;
36449;SDS011;22475;51.390;7.180;2022-12-07T02:29:24;31.73;;;16.60;;
36449;SDS011;22475;51.390;7.180;2022-12-07T02:31:55;27.42;;;17.35;;
36449;SDS011;22475;51.390;7.180;2022-12-07T02:34:31;35.25;;;19.10;;
36449;SDS011;22475;51.390;7.180;2022-12-07T02:37:06;29.30;;;18.15;;
36449;SDS011;22475;51.390;7.180;2022-12-07T02:39:40;26.63;;;15.80;;
36449;SDS011;22475;51.390;7.180;2022-12-07T02:42:12;24.20;;;13.90;;
36449;SDS011;22475;51.390;7.180;2022-12-07T02:44:43;35.00;;;18.40;;
36449;SDS011;22475;51.390;7.180;2022-12-07T02:47:12;36.08;;;19.08;;
36449;SDS011;22475;51.390;7.180;2022-12-07T02:49:41;39.33;;;20.33;;
36449;SDS011;22475;51.390;7.180;2022-12-07T02:52:09;37.10;;;16.65;;
36449;SDS011;22475;51.390;7.180;2022-12-07T02:54:35;24.55;;;13.70;;
36449;SDS011;22475;51.390;7.180;2022-12-07T02:57:04;31.10;;;17.45;;
36449;SDS011;22475;51.390;7.180;2022-12-07T02:59:42;32.92;;;17.65;;
36449;SDS011;22475;51.390;7.180;2022-12-07T03:04:53;32.38;;;17.63;;
36449;SDS011;22475;51.390;7.180;2022-12-07T03:07:33;29.33;;;14.05;;
36449;SDS011;22475;51.390;7.180;2022-12-07T03:10:07;33.95;;;17.90;;
36449;SDS011;22475;51.390;7.180;2022-12-07T03:12:42;36.13;;;19.15;;
36449;SDS011;22475;51.390;7.180;2022-12-07T03:15:15;39.15;;;20.23;;
36449;SDS011;22475;51.390;7.180;2022-12-07T03:17:48;32.60;;;17.63;;
36449;SDS011;22475;51.390;7.180;2022-12-07T03:20:17;35.75;;;18.10;;
36449;SDS011;22475;51.390;7.180;2022-12-07T03:22:47;29.63;;;17.85;;
36449;SDS011;22475;51.390;7.180;2022-12-07T03:25:15;35.78;;;18.63;;
36449;SDS011;22475;51.390;7.180;2022-12-07T03:27:44;26.30;;;16.58;;
36449;SDS011;22475;51.390;7.180;2022-12-07T03:30:19;41.67;;;18.88;;
36449;SDS011;22475;51.390;7.180;2022-12-07T03:32:49;40.88;;;18.45;;
36449;SDS011;22475;51.390;7.180;2022-12-07T03:35:21;31.42;;;16.75;;
36449;SDS011;22475;51.390;7.180;2022-12-07T03:37:52;38.83;;;19.88;;
36449;SDS011;22475;51.390;7.180;2022-12-07T03:40:22;24.08;;;15.00;;
36449;SDS011;22475;51.390;7.180;2022-12-07T03:42:54;31.92;;;16.98;;
36449;SDS011;22475;51.390;7.180;2022-12-07T03:45:26;36.53;;;18.50;;
36449;SDS011;22475;51.390;7.180;2022-12-07T03:48:04;31.80;;;16.92;;
36449;SDS011;22475;51.390;7.180;2022-12-07T03:50:36;30.77;;;16.55;;
36449;SDS011;22475;51.390;7.180;2022-12-07T03:53:09;24.80;;;14.13;;
36449;SDS011;22475;51.390;7.180;2022-12-07T03:55:41;34.55;;;18.63;;
36449;SDS011;22475;51.390;7.180;2022-12-07T03:58:10;29.73;;;16.08;;
36449;SDS011;22475;51.390;7.180;2022-12-07T04:00:41;28.38;;;16.55;;
36449;SDS011;22475;51.390;7.180;2022-12-07T04:03:09;28.13;;;16.00;;
36449;SDS011;22475;51.390;7.180;2022-12-07T04:05:36;35.63;;;18.85;;
36449;SDS011;22475;51.390;7.180;2022-12-07T04:08:04;34.88;;;16.50;;
36449;SDS011;22475;51.390;7.180;2022-12-07T04:10:31;31.20;;;17.15;;
36449;SDS011;22475;51.390;7.180;2022-12-07T04:12:58;32.28;;;16.60;;
36449;SDS011;22475;51.390;7.180;2022-12-07T04:15:25;33.47;;;16.92;;
36449;SDS011;22475;51.390;7.180;2022-12-07T04:17:53;33.97;;;16.63;;
36449;SDS011;22475;51.390;7.180;2022-12-07T04:20:19;38.97;;;17.42;;
36449;SDS011;22475;51.390;7.180;2022-12-07T04:22:47;30.73;;;16.30;;
36449;SDS011;22475;51.390;7.180;2022-12-07T04:25:13;40.80;;;16.92;;
36449;SDS011;22475;51.390;7.180;2022-12-07T04:27:40;38.92;;;19.38;;
36449;SDS011;22475;51.390;7.180;2022-12-07T04:30:07;34.10;;;17.55;;
36449;SDS011;22475;51.390;7.180;2022-12-07T04:32:35;31.90;;;16.33;;
36449;SDS011;22475;51.390;7.180;2022-12-07T04:35:03;21.65;;;14.30;;
36449;SDS011;22475;51.390;7.180;2022-12-07T04:37:30;35.20;;;16.50;;
36449;SDS011;22475;51.390;7.180;2022-12-07T04:39:57;32.83;;;17.02;;
36449;SDS011;22475;51.390;7.180;2022-12-07T04:42:24;34.53;;;17.40;;
36449;SDS011;22475;51.390;7.180;2022-12-07T04:44:50;30.52;;;15.98;;
36449;SDS011;22475;51.390;7.180;2022-12-07T04:47:17;30.48;;;16.52;;
36449;SDS011;22475;51.390;7.180;2022-12-07T04:49:44;43.28;;;17.20;;
36449;SDS011;22475;51.390;7.180;2022-12-07T04:52:12;37.58;;;16.67;;
36449;SDS011;22475;51.390;7.180;2022-12-07T04:54:38;37.03;;;17.50;;
36449;SDS011;22475;51.390;7.180;2022-12-07T04:57:05;35.05;;;18.17;;
36449;SDS011;22475;51.390;7.180;2022-12-07T04:59:32;39.67;;;18.00;;
36449;SDS011;22475;51.390;7.180;2022-12-07T05:01:59;35.95;;;16.40;;
36449;SDS011;22475;51.390;7.180;2022-12-07T05:04:25;31.15;;;15.88;;
36449;SDS011;22475;51.390;7.180;2022-12-07T05:06:52;30.95;;;15.60;;
36449;SDS011;22475;51.390;7.180;2022-12-07T05:09:20;33.75;;;15.52;;
36449;SDS011;22475;51.390;7.180;2022-12-07T05:11:47;28.15;;;17.17;;
36449;SDS011;22475;51.390;7.180;2022-12-07T05:14:14;31.33;;;17.23;;
36449;SDS011;22475;51.390;7.180;2022-12-07T05:16:43;27.50;;;14.27;;
36449;SDS011;22475;51.390;7.180;2022-12-07T05:19:11;38.67;;;17.75;;
36449;SDS011;22475;51.390;7.180;2022-12-07T05:21:38;27.55;;;14.55;;
36449;SDS011;22475;51.390;7.180;2022-12-07T05:24:06;30.48;;;16.40;;
36449;SDS011;22475;51.390;7.180;2022-12-07T05:26:35;30.85;;;16.00;;
36449;SDS011;22475;51.390;7.180;2022-12-07T05:29:02;32.30;;;16.20;;
36449;SDS011;22475;51.390;7.180;2022-12-07T05:31:29;26.85;;;15.18;;
36449;SDS011;22475;51.390;7.180;2022-12-07T05:33:56;25.73;;;14.05;;
36449;SDS011;22475;51.390;7.180;2022-12-07T05:36:23;26.15;;;13.00;;
36449;SDS011;22475;51.390;7.180;2022-12-07T05:38:49;28.25;;;16.35;;
36449;SDS011;22475;51.390;7.180;2022-12-07T05:41:17;28.20;;;15.55;;
36449;SDS011;22475;51.390;7.180;2022-12-07T05:44:03;27.27;;;13.95;;
36449;SDS011;22475;51.390;7.180;2022-12-07T05:46:31;32.72;;;17.50;;
36449;SDS011;22475;51.390;7.180;2022-12-07T05:48:57;32.47;;;16.25;;
36449;SDS011;22475;51.390;7.180;2022-12-07T05:51:24;33.35;;;17.25;;
36449;SDS011;22475;51.390;7.180;2022-12-07T05:53:51;29.83;;;14.00;;
36449;SDS011;22475;51.390;7.180;2022-12-07T05:56:18;30.52;;;14.65;;
36449;SDS011;22475;51.390;7.180;2022-12-07T05:58:44;30.80;;;16.55;;
36449;SDS011;22475;51.390;7.180;2022-12-07T06:01:30;41.47;;;18.33;;
36449;SDS011;22475;51.390;7.180;2022-12-07T06:03:57;29.98;;;16.10;;
36449;SDS011;22475;51.390;7.180;2022-12-07T06:06:24;24.58;;;13.45;;
36449;SDS011;22475;51.390;7.180;2022-12-07T06:08:51;34.58;;;15.77;;
36449;SDS011;22475;51.390;7.180;2022-12-07T06:11:17;38.50;;;16.83;;
36449;SDS011;22475;51.390;7.180;2022-12-07T06:14:02;31.05;;;15.18;;
36449;SDS011;22475;51.390;7.180;2022-12-07T06:16:28;30.27;;;16.05;;
36449;SDS011;22475;51.390;7.180;2022-12-07T06:18:57;35.38;;;16.80;;
36449;SDS011;22475;51.390;7.180;2022-12-07T06:21:23;33.38;;;15.15;;
36449;SDS011;22475;51.390;7.180;2022-12-07T06:23:51;31.00;;;15.25;;
36449;SDS011;22475;51.390;7.180;2022-12-07T06:26:18;33.47;;;15.77;;
36449;SDS011;22475;51.390;7.180;2022-12-07T06:28:45;33.78;;;16.52;;
36449;SDS011;22475;51.390;7.180;2022-12-07T06:31:11;24.52;;;15.45;;
36449;SDS011;22475;51.390;7.180;2022-12-07T06:33:40;36.38;;;15.35;;
36449;SDS011;22475;51.390;7.180;2022-12-07T06:36:07;34.80;;;16.00;;
36449;SDS011;22475;51.390;7.180;2022-12-07T06:38:34;31.33;;;15.13;;
36449;SDS011;22475;51.390;7.180;2022-12-07T06:41:00;24.30;;;12.85;;
36449;SDS011;22475;51.390;7.180;2022-12-07T06:43:27;20.25;;;12.85;;
36449;SDS011;22475;51.390;7.180;2022-12-07T06:45:54;19.85;;;12.65;;
36449;SDS011;22475;51.390;7.180;2022-12-07T06:48:21;28.77;;;11.93;;
36449;SDS011;22475;51.390;7.180;2022-12-07T06:50:49;23.08;;;13.02;;
36449;SDS011;22475;51.390;7.180;2022-12-07T06:53:16;23.42;;;12.38;;
36449;SDS011;22475;51.390;7.180;2022-12-07T06:55:42;26.60;;;13.18;;
36449;SDS011;22475;51.390;7.180;2022-12-07T06:58:09;20.60;;;12.10;;
36449;SDS011;22475;51.390;7.180;2022-12-07T07:00:36;20.60;;;11.40;;
36449;SDS011;22475;51.390;7.180;2022-12-07T07:03:03;23.80;;;13.13;;
36449;SDS011;22475;51.390;7.180;2022-12-07T07:05:29;23.58;;;11.45;;
36449;SDS011;22475;51.390;7.180;2022-12-07T07:07:57;27.73;;;13.68;;
36449;SDS011;22475;51.390;7.180;2022-12-07T07:10:24;22.95;;;12.27;;
36449;SDS011;22475;51.390;7.180;2022-12-07T07:12:51;28.80;;;13.65;;
36449;SDS011;22475;51.390;7.180;2022-12-07T07:15:18;26.05;;;13.13;;
36449;SDS011;22475;51.390;7.180;2022-12-07T07:17:44;26.23;;;12.32;;
36449;SDS011;22475;51.390;7.180;2022-12-07T07:20:12;19.52;;;12.10;;
36449;SDS011;22475;51.390;7.180;2022-12-07T07:22:40;16.52;;;11.18;;
36449;SDS011;22475;51.390;7.180;2022-12-07T07:25:08;18.65;;;11.32;;
36449;SDS011;22475;51.390;7.180;2022-12-07T07:27:34;22.60;;;12.30;;
36449;SDS011;22475;51.390;7.180;2022-12-07T07:30:01;26.45;;;11.70;;
36449;SDS011;22475;51.390;7.180;2022-12-07T07:32:29;17.90;;;11.10;;
36449;SDS011;22475;51.390;7.180;2022-12-07T07:34:55;17.45;;;9.75;;
36449;SDS011;22475;51.390;7.180;2022-12-07T07:37:22;14.55;;;9.70;;
36449;SDS011;22475;51.390;7.180;2022-12-07T07:39:49;15.00;;;8.02;;
36449;SDS011;22475;51.390;7.180;2022-12-07T07:42:17;11.85;;;7.82;;
36449;SDS011;22475;51.390;7.180;2022-12-07T07:44:44;15.00;;;8.43;;
36449;SDS011;22475;51.390;7.180;2022-12-07T07:47:11;14.10;;;8.73;;
36449;SDS011;22475;51.390;7.180;2022-12-07T07:49:38;13.23;;;7.78;;
36449;SDS011;22475;51.390;7.180;2022-12-07T07:52:04;15.43;;;7.93;;
36449;SDS011;22475;51.390;7.180;2022-12-07T07:54:32;8.80;;;7.35;;
36449;SDS011;22475;51.390;7.180;2022-12-07T07:56:58;17.10;;;7.63;;
36449;SDS011;22475;51.390;7.180;2022-12-07T07:59:26;16.48;;;7.05;;
36449;SDS011;22475;51.390;7.180;2022-12-07T08:01:53;12.07;;;7.65;;
36449;SDS011;22475;51.390;7.180;2022-12-07T08:04:20;24.30;;;8.13;;
36449;SDS011;22475;51.390;7.180;2022-12-07T08:06:47;21.85;;;8.77;;
36449;SDS011;22475;51.390;7.180;2022-12-07T08:09:13;13.55;;;7.32;;
36449;SDS011;22475;51.390;7.180;2022-12-07T08:11:40;12.15;;;7.30;;
36449;SDS011;22475;51.390;7.180;2022-12-07T08:14:07;8.82;;;6.55;;
36449;SDS011;22475;51.390;7.180;2022-12-07T08:16:35;17.30;;;9.00;;
36449;SDS011;22475;51.390;7.180;2022-12-07T08:19:03;20.25;;;9.18;;
36449;SDS011;22475;51.390;7.180;2022-12-07T08:21:30;11.35;;;7.30;;
36449;SDS011;22475;51.390;7.180;2022-12-07T08:23:57;16.35;;;9.40;;
36449;SDS011;22475;51.390;7.180;2022-12-07T08:26:24;12.10;;;7.72;;
36449;SDS011;22475;51.390;7.180;2022-12-07T08:28:52;12.40;;;7.50;;
36449;SDS011;22475;51.390;7.180;2022-12-07T08:31:19;10.73;;;6.95;;
36449;SDS011;22475;51.390;7.180;2022-12-07T08:33:47;10.05;;;6.03;;
36449;SDS011;22475;51.390;7.180;2022-12-07T08:36:14;13.35;;;7.72;;
36449;SDS011;22475;51.390;7.180;2022-12-07T08:38:42;14.57;;;7.05;;
36449;SDS011;22475;51.390;7.180;2022-12-07T08:41:09;12.38;;;8.95;;
36449;SDS011;22475;51.390;7.180;2022-12-07T08:43:36;17.13;;;8.93;;
36449;SDS011;22475;51.390;7.180;2022-12-07T08:46:05;17.27;;;8.02;;
36449;SDS011;22475;51.390;7.180;2022-12-07T08:48:35;15.70;;;7.45;;
36449;SDS011;22475;51.390;7.180;2022-12-07T08:51:06;11.80;;;6.32;;
36449;SDS011;22475;51.390;7.180;2022-12-07T08:53:33;17.15;;;7.47;;
36449;SDS011;22475;51.390;7.180;2022-12-07T08:56:01;13.32;;;7.63;;
36449;SDS011;22475;51.390;7.180;2022-12-07T08:58:28;11.80;;;6.13;;
36449;SDS011;22475;51.390;7.180;2022-12-07T09:00:56;8.23;;;5.63;;
36449;SDS011;22475;51.390;7.180;2022-12-07T09:03:22;6.97;;;5.20;;
36449;SDS011;22475;51.390;7.180;2022-12-07T09:05:49;15.90;;;5.80;;
36449;SDS011;22475;51.390;7.180;2022-12-07T09:08:17;8.82;;;5.20;;
36449;SDS011;22475;51.390;7.180;2022-12-07T09:10:44;9.15;;;5.47;;
36449;SDS011;22475;51.390;7.180;2022-12-07T09:13:11;8.30;;;4.25;;
36449;SDS011;22475;51.390;7.180;2022-12-07T09:15:37;10.07;;;5.30;;
36449;SDS011;22475;51.390;7.180;2022-12-07T09:18:04;7.70;;;4.97;;
36449;SDS011;22475;51.390;7.180;2022-12-07T09:20:31;8.15;;;4.30;;
36449;SDS011;22475;51.390;7.180;2022-12-07T09:22:58;6.38;;;4.32;;
36449;SDS011;22475;51.390;7.180;2022-12-07T09:25:27;8.52;;;4.68;;
36449;SDS011;22475;51.390;7.180;2022-12-07T09:27:57;10.25;;;5.18;;
36449;SDS011;22475;51.390;7.180;2022-12-07T09:30:25;6.70;;;4.43;;
36449;SDS011;22475;51.390;7.180;2022-12-07T09:32:52;9.98;;;4.60;;
36449;SDS011;22475;51.390;7.180;2022-12-07T09:35:19;10.75;;;5.38;;
36449;SDS011;22475;51.390;7.180;2022-12-07T09:37:46;11.55;;;5.85;;
36449;SDS011;22475;51.390;7.180;2022-12-07T09:40:13;6.93;;;4.63;;
36449;SDS011;22475;51.390;7.180;2022-12-07T09:42:43;8.60;;;5.30;;
36449;SDS011;22475;51.390;7.180;2022-12-07T09:45:15;13.40;;;6.22;;
36449;SDS011;22475;51.390;7.180;2022-12-07T09:47:43;14.65;;;6.45;;
36449;SDS011;22475;51.390;7.180;2022-12-07T09:50:12;9.32;;;4.45;;
36449;SDS011;22475;51.390;7.180;2022-12-07T09:52:41;12.05;;;6.43;;
36449;SDS011;22475;51.390;7.180;2022-12-07T09:55:10;15.02;;;7.47;;
36449;SDS011;22475;51.390;7.180;2022-12-07T09:57:38;13.45;;;5.43;;
36449;SDS011;22475;51.390;7.180;2022-12-07T10:00:13;12.27;;;5.65;;
36449;SDS011;22475;51.390;7.180;2022-12-07T10:02:42;6.35;;;4.30;;
36449;SDS011;22475;51.390;7.180;2022-12-07T10:05:12;8.35;;;6.43;;
36449;SDS011;22475;51.390;7.180;2022-12-07T10:07:41;14.18;;;9.20;;
36449;SDS011;22475;51.390;7.180;2022-12-07T10:10:12;8.35;;;6.15;;
36449;SDS011;22475;51.390;7.180;2022-12-07T10:12:54;16.30;;;4.63;;
36449;SDS011;22475;51.390;7.180;2022-12-07T10:15:24;12.35;;;5.95;;
36449;SDS011;22475;51.390;7.180;2022-12-07T10:18:16;17.52;;;7.53;;
36449;SDS011;22475;51.390;7.180;2022-12-07T10:20:44;5.15;;;4.65;;
36449;SDS011;22475;51.390;7.180;2022-12-07T10:23:13;13.05;;;6.93;;
36449;SDS011;22475;51.390;7.180;2022-12-07T10:25:41;11.25;;;6.53;;
36449;SDS011;22475;51.390;7.180;2022-12-07T10:28:12;11.20;;;6.00;;
36449;SDS011;22475;51.390;7.180;2022-12-07T10:30:52;15.57;;;5.72;;
36449;SDS011;22475;51.390;7.180;2022-12-07T10:33:27;12.73;;;6.20;;
36449;SDS011;22475;51.390;7.180;2022-12-07T10:35:59;7.35;;;4.18;;
36449;SDS011;22475;51.390;7.180;2022-12-07T10:38:43;6.78;;;4.30;;
36449;SDS011;22475;51.390;7.180;2022-12-07T10:41:12;6.88;;;4.10;;
36449;SDS011;22475;51.390;7.180;2022-12-07T10:43:46;11.90;;;4.03;;
36449;SDS011;22475;51.390;7.180;2022-12-07T10:46:25;7.28;;;4.00;;
36449;SDS011;22475;51.390;7.180;2022-12-07T10:49:42;6.32;;;3.17;;
36449;SDS011;22475;51.390;7.180;2022-12-07T10:52:37;5.45;;;4.10;;
36449;SDS011;22475;51.390;7.180;2022-12-07T10:55:14;8.38;;;3.80;;
36449;SDS011;22475;51.390;7.180;2022-12-07T11:00:43;7.03;;;3.45;;
36449;SDS011;22475;51.390;7.180;2022-12-07T11:03:24;8.55;;;3.15;;
36449;SDS011;22475;51.390;7.180;2022-12-07T11:06:13;8.63;;;3.35;;
36449;SDS011;22475;51.390;7.180;2022-12-07T11:08:58;8.93;;;3.22;;
36449;SDS011;22475;51.390;7.180;2022-12-07T11:11:31;8.27;;;3.97;;
36449;SDS011;22475;51.390;7.180;2022-12-07T11:14:03;4.03;;;2.78;;
36449;SDS011;22475;51.390;7.180;2022-12-07T11:16:50;5.43;;;2.73;;
36449;SDS011;22475;51.390;7.180;2022-12-07T11:19:39;2.90;;;2.67;;
36449;SDS011;22475;51.390;7.180;2022-12-07T11:22:17;7.00;;;3.10;;
36449;SDS011;22475;51.390;7.180;2022-12-07T11:24:50;10.88;;;3.53;;
36449;SDS011;22475;51.390;7.180;2022-12-07T11:27:28;4.00;;;2.30;;
36449;SDS011;22475;51.390;7.180;2022-12-07T11:30:07;5.13;;;3.00;;
36449;SDS011;22475;51.390;7.180;2022-12-07T11:32:44;6.20;;;3.72;;
36449;SDS011;22475;51.390;7.180;2022-12-07T11:35:22;5.60;;;3.20;;
36449;SDS011;22475;51.390;7.180;2022-12-07T11:37:57;7.40;;;3.35;;
36449;SDS011;22475;51.390;7.180;2022-12-07T11:40:29;8.20;;;3.97;;
36449;SDS011;22475;51.390;7.180;2022-12-07T11:43:01;7.90;;;3.78;;
36449;SDS011;22475;51.390;7.180;2022-12-07T11:45:33;5.15;;;3.35;;
36449;SDS011;22475;51.390;7.180;2022-12-07T11:48:03;5.05;;;3.25;;
36449;SDS011;22475;51.390;7.180;2022-12-07T11:50:38;3.20;;;2.90;;
36449;SDS011;22475;51.390;7.180;2022-12-07T11:53:10;9.05;;;3.83;;
36449;SDS011;22475;51.390;7.180;2022-12-07T11:55:44;11.23;;;6.00;;
36449;SDS011;22475;51.390;7.180;2022-12-07T11:58:28;11.35;;;5.13;;
36449;SDS011;22475;51.390;7.180;2022-12-07T12:01:14;9.00;;;5.03;;
36449;SDS011;22475;51.390;7.180;2022-12-07T12:03:51;9.32;;;3.65;;
36449;SDS011;22475;51.390;7.180;2022-12-07T12:06:21;9.38;;;4.22;;
36449;SDS011;22475;51.390;7.180;2022-12-07T12:08:49;9.02;;;4.80;;
36449;SDS011;22475;51.390;7.180;2022-12-07T12:11:25;8.15;;;4.55;;
36449;SDS011;22475;51.390;7.180;2022-12-07T12:14:18;6.50;;;4.00;;
36449;SDS011;22475;51.390;7.180;2022-12-07T12:17:09;16.77;;;3.75;;
36449;SDS011;22475;51.390;7.180;2022-12-07T12:19:57;4.20;;;3.08;;
36449;SDS011;22475;51.390;7.180;2022-12-07T12:22:31;4.72;;;3.67;;
36449;SDS011;22475;51.390;7.180;2022-12-07T12:25:03;4.63;;;3.60;;
36449;SDS011;22475;51.390;7.180;2022-12-07T12:27:33;3.05;;;2.78;;
36449;SDS011;22475;51.390;7.180;2022-12-07T12:30:04;11.00;;;3.67;;
36449;SDS011;22475;51.390;7.180;2022-12-07T12:32:35;8.50;;;3.97;;
36449;SDS011;22475;51.390;7.180;2022-12-07T12:35:22;5.22;;;3.50;;
36449;SDS011;22475;51.390;7.180;2022-12-07T12:38:19;9.25;;;4.22;;
36449;SDS011;22475;51.390;7.180;2022-12-07T12:40:58;10.18;;;3.03;;
36449;SDS011;22475;51.390;7.180;2022-12-07T12:43:46;8.43;;;3.83;;
36449;SDS011;22475;51.390;7.180;2022-12-07T12:46:37;6.07;;;2.53;;
36449;SDS011;22475;51.390;7.180;2022-12-07T12:49:31;3.88;;;2.95;;
36449;SDS011;22475;51.390;7.180;2022-12-07T12:55:24;11.40;;;2.78;;
36449;SDS011;22475;51.390;7.180;2022-12-07T12:58:21;4.05;;;2.15;;
36449;SDS011;22475;51.390;7.180;2022-12-07T13:04:17;4.28;;;2.00;;
36449;SDS011;22475;51.390;7.180;2022-12-07T13:07:00;6.43;;;2.25;;
36449;SDS011;22475;51.390;7.180;2022-12-07T13:09:27;5.60;;;2.67;;
36449;SDS011;22475;51.390;7.180;2022-12-07T13:11:59;2.80;;;1.35;;
36449;SDS011;22475;51.390;7.180;2022-12-07T13:14:40;3.60;;;2.05;;
36449;SDS011;22475;51.390;7.180;2022-12-07T13:20:45;7.25;;;1.95;;
36449;SDS011;22475;51.390;7.180;2022-12-07T13:23:17;12.32;;;2.85;;
36449;SDS011;22475;51.390;7.180;2022-12-07T13:26:16;8.25;;;1.90;;
36449;SDS011;22475;51.390;7.180;2022-12-07T13:28:46;7.13;;;2.22;;
36449;SDS011;22475;51.390;7.180;2022-12-07T13:31:30;1.80;;;1.38;;
36449;SDS011;22475;51.390;7.180;2022-12-07T13:34:00;10.43;;;2.08;;
36449;SDS011;22475;51.390;7.180;2022-12-07T13:36:28;6.25;;;1.55;;
36449;SDS011;22475;51.390;7.180;2022-12-07T13:39:10;8.63;;;1.50;;
36449;SDS011;22475;51.390;7.180;2022-12-07T13:41:44;9.20;;;2.25;;
36449;SDS011;22475;51.390;7.180;2022-12-07T13:44:17;5.47;;;1.33;;
36449;SDS011;22475;51.390;7.180;2022-12-07T13:46:47;5.10;;;2.05;;
36449;SDS011;22475;51.390;7.180;2022-12-07T13:49:20;4.97;;;1.55;;
36449;SDS011;22475;51.390;7.180;2022-12-07T13:51:48;4.53;;;1.73;;
36449;SDS011;22475;51.390;7.180;2022-12-07T13:54:16;2.00;;;1.00;;
36449;SDS011;22475;51.390;7.180;2022-12-07T13:56:44;8.18;;;2.13;;
36449;SDS011;22475;51.390;7.180;2022-12-07T13:59:18;5.03;;;1.80;;
36449;SDS011;22475;51.390;7.180;2022-12-07T14:01:47;8.68;;;1.27;;
36449;SDS011;22475;51.390;7.180;2022-12-07T14:04:19;5.70;;;1.95;;
36449;SDS011;22475;51.390;7.180;2022-12-07T14:06:55;4.57;;;1.75;;
36449;SDS011;22475;51.390;7.180;2022-12-07T14:09:23;3.08;;;0.95;;
36449;SDS011;22475;51.390;7.180;2022-12-07T14:11:52;4.38;;;1.80;;
36449;SDS011;22475;51.390;7.180;2022-12-07T14:14:22;4.18;;;0.70;;
36449;SDS011;22475;51.390;7.180;2022-12-07T14:16:57;5.13;;;1.67;;
36449;SDS011;22475;51.390;7.180;2022-12-07T14:19:46;2.08;;;1.55;;
36449;SDS011;22475;51.390;7.180;2022-12-07T14:22:28;7.55;;;1.45;;
36449;SDS011;22475;51.390;7.180;2022-12-07T14:27:49;2.47;;;1.58;;
36449;SDS011;22475;51.390;7.180;2022-12-07T14:30:22;5.88;;;1.10;;
36449;SDS011;22475;51.390;7.180;2022-12-07T14:32:51;3.33;;;1.73;;
36449;SDS011;22475;51.390;7.180;2022-12-07T14:35:20;6.80;;;1.43;;
36449;SDS011;22475;51.390;7.180;2022-12-07T14:37:47;3.53;;;0.80;;
36449;SDS011;22475;51.390;7.180;2022-12-07T14:40:16;2.67;;;1.30;;
36449;SDS011;22475;51.390;7.180;2022-12-07T14:42:44;4.32;;;1.35;;
36449;SDS011;22475;51.390;7.180;2022-12-07T14:45:13;9.52;;;1.58;;
36449;SDS011;22475;51.390;7.180;2022-12-07T14:47:43;4.75;;;1.67;;
36449;SDS011;22475;51.390;7.180;2022-12-07T14:50:11;12.05;;;1.80;;
36449;SDS011;22475;51.390;7.180;2022-12-07T14:52:39;5.05;;;1.33;;
36449;SDS011;22475;51.390;7.180;2022-12-07T14:55:12;8.82;;;1.60;;
36449;SDS011;22475;51.390;7.180;2022-12-07T14:57:45;6.70;;;1.73;;
36449;SDS011;22475;51.390;7.180;2022-12-07T15:00:15;6.35;;;1.60;;
36449;SDS011;22475;51.390;7.180;2022-12-07T15:02:45;9.98;;;2.00;;
36449;SDS011;22475;51.390;7.180;2022-12-07T15:05:13;4.07;;;1.70;;
36449;SDS011;22475;51.390;7.180;2022-12-07T15:07:40;2.33;;;1.95;;
36449;SDS011;22475;51.390;7.180;2022-12-07T15:10:09;4.53;;;1.15;;
36449;SDS011;22475;51.390;7.180;2022-12-07T15:12:42;2.35;;;1.60;;
36449;SDS011;22475;51.390;7.180;2022-12-07T15:15:09;4.00;;;2.05;;
36449;SDS011;22475;51.390;7.180;2022-12-07T15:17:36;3.90;;;1.52;;
36449;SDS011;22475;51.390;7.180;2022-12-07T15:20:05;7.70;;;2.05;;
36449;SDS011;22475;51.390;7.180;2022-12-07T15:22:34;5.38;;;1.80;;